createdAt,value
2022-09-28T04:57:08.454Z,10.70
2022-09-28T04:59:37.583Z,7.22
2022-09-28T05:02:05.246Z,6.95
2022-09-28T05:04:56.398Z,8.75
2022-09-28T05:07:49.062Z,7.75
2022-09-28T05:10:19.877Z,6.97
2022-09-28T05:12:47.096Z,7.03
2022-09-28T05:15:13.878Z,8.48
2022-09-28T05:18:03.198Z,9.70
2022-09-28T05:21:18.854Z,9.10
2022-09-28T05:32:02.473Z,11.68
2022-09-28T05:42:39.741Z,10.38
2022-09-28T05:53:56.176Z,10.57
2022-09-28T05:56:25.350Z,11.50
2022-09-28T05:58:52.610Z,9.00
2022-09-28T06:01:21.773Z,9.85
2022-09-28T06:08:12.909Z,9.23
2022-09-28T06:23:13.167Z,7.82
2022-09-28T06:25:40.516Z,11.52
2022-09-28T06:36:52.547Z,8.05
2022-09-28T06:43:35.535Z,5.32
2022-09-28T06:50:51.726Z,4.20
2022-09-28T06:53:47.662Z,9.27
2022-09-28T06:56:32.854Z,6.88
2022-09-28T07:03:24.853Z,4.72
2022-09-28T07:10:57.890Z,7.70
2022-09-28T07:13:56.017Z,2.30
2022-09-28T07:16:27.490Z,4.75
2022-09-28T07:18:56.930Z,2.58
2022-09-28T07:25:49.562Z,4.03
2022-09-28T07:28:34.095Z,3.53
2022-09-28T07:31:30.105Z,2.53
2022-09-28T07:34:26.179Z,2.50
2022-09-28T07:37:13.353Z,2.55
2022-09-28T07:44:40.981Z,5.75
2022-09-28T07:47:07.888Z,3.38
2022-09-28T07:50:00.813Z,3.33
2022-09-28T07:57:06.946Z,2.78
2022-09-28T08:00:00.653Z,3.13
2022-09-28T08:02:45.415Z,3.03
2022-09-28T08:09:35.634Z,3.10
2022-09-28T08:15:27.921Z,2.47
2022-09-28T08:18:13.161Z,2.05
2022-09-28T08:36:15.819Z,3.35
2022-09-28T08:38:55.612Z,2.22
2022-09-28T08:42:23.677Z,4.75
2022-09-28T08:45:12.789Z,3.85
2022-09-28T08:48:28.656Z,4.45
2022-09-28T08:51:21.177Z,2.72
2022-09-28T08:58:25.943Z,4.22
2022-09-28T09:00:54.281Z,2.78
2022-09-28T09:07:50.568Z,1.73
2022-09-28T09:10:38.743Z,3.55
2022-09-28T09:13:25.434Z,4.47
2022-09-28T09:21:17.692Z,4.82
2022-09-28T09:24:14.925Z,2.55
2022-09-28T09:39:55.692Z,1.85
2022-09-28T09:54:55.501Z,4.28
2022-09-28T10:03:18.666Z,1.40
2022-09-28T10:06:10.919Z,4.25
2022-09-28T10:08:44.209Z,3.42
2022-09-28T10:20:18.797Z,4.13
2022-09-28T10:24:23.457Z,1.85
2022-09-28T10:51:57.770Z,2.53
2022-09-28T12:01:44.865Z,1.90
2022-09-28T12:01:57.865Z,3.83
2022-09-28T12:08:34.641Z,6.75
2022-09-28T12:11:29.553Z,2.23
2022-09-28T12:14:36.947Z,3.85
2022-09-28T12:17:32.898Z,6.85
2022-09-28T12:20:22.261Z,4.72
2022-09-28T12:23:12.959Z,9.07
2022-09-28T12:30:56.250Z,1.50
2022-09-28T12:46:15.892Z,2.90
2022-09-28T12:49:47.323Z,2.60
2022-09-28T12:51:54.006Z,3.28
2022-09-28T12:54:42.354Z,2.72
2022-09-28T12:57:30.293Z,3.72
2022-09-28T13:00:08.891Z,2.53
2022-09-28T13:02:50.740Z,3.67
2022-09-28T13:06:08.335Z,3.78
2022-09-28T13:13:21.344Z,4.32
2022-09-28T13:20:17.891Z,3.83
2022-09-28T13:22:56.746Z,3.75
2022-09-28T13:30:09.505Z,3.15
2022-09-28T13:40:06.191Z,6.25
2022-09-28T13:42:45.126Z,2.88
2022-09-28T13:53:03.931Z,4.10
2022-09-28T14:04:20.589Z,3.40
2022-09-28T14:06:57.479Z,3.20
2022-09-28T14:13:43.512Z,3.08
2022-09-28T14:16:31.861Z,4.70
2022-09-28T14:19:07.764Z,5.03
2022-09-28T14:22:09.043Z,2.67
2022-09-28T14:24:41.470Z,3.20
2022-09-28T14:27:26.021Z,3.72
2022-09-28T14:30:11.278Z,5.47
2022-09-28T14:32:40.997Z,3.13
2022-09-28T14:35:29.769Z,2.88
2022-09-28T14:41:27.629Z,3.70
2022-09-28T14:43:59.945Z,4.47
2022-09-28T14:46:30.097Z,3.05
2022-09-28T14:49:01.731Z,4.63
2022-09-28T14:51:31.238Z,5.10
2022-09-28T14:54:03.019Z,3.08
2022-09-28T14:56:38.197Z,2.25
2022-09-28T14:59:07.190Z,4.45
2022-09-28T15:01:36.067Z,2.85
2022-09-28T15:04:07.062Z,3.25
2022-09-28T15:06:50.764Z,3.83
2022-09-28T15:09:30.222Z,5.07
2022-09-28T15:12:27.689Z,2.53
2022-09-28T15:15:03.083Z,4.28
2022-09-28T15:17:40.245Z,3.80
2022-09-28T15:20:24.559Z,3.20
2022-09-28T15:22:59.436Z,5.47
2022-09-28T15:25:29.117Z,3.58
2022-09-28T15:27:58.877Z,4.32
2022-09-28T15:30:33.032Z,4.95
2022-09-28T15:33:20.580Z,3.75
2022-09-28T15:36:05.869Z,3.10
2022-09-28T15:38:34.492Z,3.97
2022-09-28T15:41:05.328Z,3.70
2022-09-28T15:43:33.887Z,4.35
2022-09-28T15:46:15.328Z,3.88
2022-09-28T15:48:52.796Z,2.28
2022-09-28T15:51:21.397Z,3.53
2022-09-28T15:54:09.313Z,4.03
2022-09-28T15:56:52.885Z,5.15
2022-09-28T15:59:33.081Z,8.63
2022-09-28T16:02:19.692Z,6.40
2022-09-28T16:04:58.911Z,6.68
2022-09-28T16:07:38.129Z,4.75
2022-09-28T16:10:13.862Z,5.47
2022-09-28T16:12:48.062Z,5.25
2022-09-28T16:15:25.549Z,4.45
2022-09-28T16:18:01.435Z,6.53
2022-09-28T16:20:35.554Z,8.27
2022-09-28T16:23:15.321Z,5.18
2022-09-28T16:26:08.968Z,6.82
2022-09-28T16:28:38.575Z,7.22
2022-09-28T16:31:14.159Z,6.97
2022-09-28T16:33:45.766Z,6.35
2022-09-28T16:36:15.948Z,5.30
2022-09-28T16:38:49.598Z,4.68
2022-09-28T16:41:19.601Z,10.67
2022-09-28T16:43:46.864Z,5.72
2022-09-28T16:46:17.469Z,6.30
2022-09-28T16:48:49.753Z,5.00
2022-09-28T16:51:21.136Z,6.90
2022-09-28T16:54:06.909Z,41.30
2022-09-28T16:56:35.661Z,23.52
2022-09-28T16:59:03.114Z,9.48
2022-09-28T17:01:31.356Z,10.83
2022-09-28T17:03:58.086Z,9.13
2022-09-28T17:06:25.373Z,8.52
2022-09-28T17:08:55.080Z,10.52
2022-09-28T17:11:24.474Z,7.55
2022-09-28T17:13:51.878Z,9.63
2022-09-28T17:16:42.620Z,12.27
2022-09-28T17:19:21.395Z,12.55
2022-09-28T17:21:48.746Z,9.18
2022-09-28T17:24:15.470Z,9.90
2022-09-28T17:26:44.370Z,9.77
2022-09-28T17:29:14.617Z,10.90
2022-09-28T17:31:46.981Z,10.50
2022-09-28T17:34:17.775Z,9.07
2022-09-28T17:36:45.128Z,11.65
2022-09-28T17:39:16.642Z,10.68
2022-09-28T17:41:43.578Z,11.43
2022-09-28T17:48:24.254Z,8.50
2022-09-28T17:50:51.195Z,7.70
2022-09-28T17:53:18.089Z,10.93
2022-09-28T17:55:49.195Z,11.45
2022-09-28T18:07:19.772Z,13.25
2022-09-28T18:09:46.422Z,18.35
2022-09-28T18:12:13.089Z,14.75
2022-09-28T18:14:40.008Z,15.70
2022-09-28T18:17:06.668Z,16.48
2022-09-28T18:19:33.266Z,15.38
2022-09-28T18:22:01.341Z,11.60
2022-09-28T18:24:28.155Z,10.50
2022-09-28T18:26:54.744Z,11.43
2022-09-28T18:29:21.264Z,10.32
2022-09-28T18:31:48.822Z,10.18
2022-09-28T18:34:15.555Z,13.23
2022-09-28T18:36:42.166Z,10.50
2022-09-28T18:39:08.710Z,10.30
2022-09-28T18:41:35.323Z,10.23
2022-09-28T18:44:02.169Z,13.88
2022-09-28T18:46:31.372Z,9.70
2022-09-28T18:48:57.981Z,11.73
2022-09-28T18:51:24.673Z,12.07
2022-09-28T18:53:51.399Z,10.32
2022-09-28T18:56:18.730Z,10.50
2022-09-28T18:58:46.870Z,10.30
2022-09-28T19:01:32.158Z,11.30
2022-09-28T19:04:00.871Z,14.10
2022-09-28T19:06:28.540Z,16.92
2022-09-28T19:08:56.102Z,12.55
2022-09-28T19:11:24.202Z,12.00
2022-09-28T19:13:52.292Z,15.48
2022-09-28T19:16:22.055Z,16.83
2022-09-28T19:18:48.984Z,15.70
2022-09-28T19:21:16.070Z,14.75
2022-09-28T19:23:49.010Z,21.52
2022-09-28T19:26:22.404Z,17.45
2022-09-28T19:28:49.581Z,14.57
2022-09-28T19:31:17.187Z,13.43
2022-09-28T19:33:46.364Z,12.23
2022-09-28T19:36:18.401Z,10.13
2022-09-28T19:38:46.221Z,17.85
2022-09-28T19:41:39.035Z,10.60
2022-09-28T19:44:11.182Z,8.75
2022-09-28T19:46:40.620Z,8.80
2022-09-28T19:49:11.317Z,8.68
2022-09-28T19:51:46.983Z,7.85
2022-09-28T19:54:31.077Z,7.85
2022-09-28T19:57:01.262Z,8.85
2022-09-28T19:59:27.880Z,11.65
2022-09-28T20:01:57.459Z,7.18
2022-09-28T20:04:24.184Z,8.48
2022-09-28T20:06:52.818Z,7.15
2022-09-28T20:09:19.848Z,7.80
2022-09-28T20:11:46.798Z,7.45
2022-09-28T20:14:19.079Z,6.22
2022-09-28T20:16:48.492Z,7.38
2022-09-28T20:19:16.337Z,8.75
2022-09-28T20:21:43.368Z,8.82
2022-09-28T20:24:11.501Z,8.40
2022-09-28T20:26:38.487Z,6.35
2022-09-28T20:29:07.400Z,7.47
2022-09-28T20:31:38.708Z,7.38
2022-09-28T20:34:06.563Z,7.70
2022-09-28T20:36:34.134Z,7.15
2022-09-28T20:39:01.838Z,5.63
2022-09-28T20:41:34.814Z,6.57
2022-09-28T20:44:07.540Z,7.47
2022-09-28T20:46:41.335Z,7.70
2022-09-28T20:49:08.510Z,6.57
2022-09-28T20:51:35.711Z,6.10
2022-09-28T20:54:02.758Z,8.02
2022-09-28T20:56:40.043Z,5.95
2022-09-28T20:59:08.765Z,7.10
2022-09-28T21:01:36.145Z,6.32
2022-09-28T21:04:05.548Z,7.07
2022-09-28T21:06:37.552Z,7.97
